createdAt,value
2019-02-24T00:00:58.091Z,91.80
2019-02-24T00:03:25.567Z,92.00
2019-02-24T00:05:53.092Z,91.90
2019-02-24T00:08:20.922Z,92.20
2019-02-24T00:10:48.432Z,92.10
2019-02-24T00:13:15.915Z,92.00
2019-02-24T00:15:43.444Z,91.90
2019-02-24T00:18:10.914Z,92.20
2019-02-24T00:20:38.419Z,91.90
2019-02-24T00:23:05.905Z,92.00
2019-02-24T00:25:33.396Z,91.60
2019-02-24T00:28:06.885Z,90.70
2019-02-24T00:30:30.198Z,91.30
2019-02-24T00:32:57.715Z,91.40
2019-02-24T00:35:25.227Z,91.40
2019-02-24T00:37:52.783Z,91.60
2019-02-24T00:40:20.347Z,91.40
2019-02-24T00:42:47.813Z,91.30
2019-02-24T00:45:15.363Z,91.30
2019-02-24T00:47:42.931Z,91.10
2019-02-24T00:50:10.382Z,91.00
2019-02-24T00:52:37.872Z,91.00
2019-02-24T00:55:05.538Z,91.00
2019-02-24T00:57:33.027Z,91.30
2019-02-24T01:00:00.521Z,91.40
2019-02-24T01:02:28.295Z,91.50
2019-02-24T01:04:55.763Z,91.60
2019-02-24T01:07:23.236Z,91.70
2019-02-24T01:09:50.736Z,91.90
2019-02-24T01:12:18.258Z,91.90
2019-02-24T01:14:45.749Z,92.40
2019-02-24T01:17:13.264Z,92.40
2019-02-24T01:19:40.735Z,92.60
2019-02-24T01:22:08.240Z,92.90
2019-02-24T01:24:35.765Z,92.70
2019-02-24T01:27:03.291Z,92.90
2019-02-24T01:29:30.757Z,93.00
2019-02-24T01:31:58.261Z,93.30
2019-02-24T01:34:25.746Z,93.10
2019-02-24T01:36:53.218Z,93.30
2019-02-24T01:39:20.683Z,93.40
2019-02-24T01:41:48.207Z,93.60
2019-02-24T01:44:15.711Z,93.50
2019-02-24T01:46:43.257Z,93.70
2019-02-24T01:49:10.844Z,93.70
2019-02-24T01:51:38.687Z,93.60
2019-02-24T01:54:06.195Z,93.80
2019-02-24T01:56:34.046Z,94.00
2019-02-24T01:59:01.549Z,94.10
2019-02-24T02:01:29.009Z,94.30
2019-02-24T02:03:56.500Z,94.50
2019-02-24T02:06:23.971Z,94.60
2019-02-24T02:08:51.484Z,94.60
2019-02-24T02:11:18.944Z,94.80
2019-02-24T02:13:46.448Z,94.40
2019-02-24T02:16:13.924Z,94.20
2019-02-24T02:18:41.443Z,93.70
2019-02-24T02:21:08.911Z,93.20
2019-02-24T02:23:36.404Z,93.20
2019-02-24T02:26:04.104Z,93.20
2019-02-24T02:28:31.605Z,93.30
2019-02-24T02:30:59.119Z,93.60
2019-02-24T02:33:26.597Z,93.90
2019-02-24T02:36:13.574Z,94.00
2019-02-24T02:38:41.086Z,94.00
2019-02-24T02:41:08.607Z,94.10
2019-02-24T02:43:36.146Z,94.30
2019-02-24T02:46:03.621Z,93.80
2019-02-24T02:48:50.565Z,93.30
2019-02-24T02:51:18.076Z,93.20
2019-02-24T02:53:45.609Z,93.40
2019-02-24T02:56:13.216Z,93.40
2019-02-24T02:58:41.128Z,93.50
2019-02-24T03:01:08.626Z,94.10
2019-02-24T03:03:36.139Z,94.00
2019-02-24T03:06:41.482Z,94.30
2019-02-24T03:09:10.535Z,94.20
2019-02-24T03:11:38.067Z,94.30
2019-02-24T03:14:05.584Z,94.20
2019-02-24T03:16:33.120Z,94.60
2019-02-24T03:19:00.644Z,94.50
2019-02-24T03:21:28.116Z,94.80
2019-02-24T03:24:15.062Z,94.90
2019-02-24T03:26:42.549Z,95.20
2019-02-24T03:29:10.031Z,94.70
2019-02-24T03:31:37.538Z,94.70
2019-02-24T03:34:05.034Z,94.90
2019-02-24T03:36:32.545Z,95.00
2019-02-24T03:39:00.026Z,95.20
2019-02-24T03:41:27.559Z,95.10
2019-02-24T03:43:55.052Z,95.20
2019-02-24T03:46:22.540Z,95.50
2019-02-24T03:48:49.997Z,95.50
2019-02-24T03:51:17.497Z,95.70
2019-02-24T03:53:44.966Z,95.90
2019-02-24T03:56:12.453Z,96.00
2019-02-24T03:58:39.954Z,96.10
2019-02-24T04:01:07.797Z,96.30
2019-02-24T04:03:35.295Z,96.50
2019-02-24T04:06:02.778Z,96.40
2019-02-24T04:08:30.256Z,96.30
2019-02-24T04:10:57.755Z,96.30
2019-02-24T04:13:25.235Z,96.50
2019-02-24T04:15:52.839Z,96.40
2019-02-24T04:18:20.320Z,96.10
2019-02-24T04:20:47.846Z,96.20
2019-02-24T04:23:15.302Z,96.30
2019-02-24T04:25:42.855Z,96.20
2019-02-24T04:28:10.366Z,96.10
2019-02-24T04:30:37.856Z,96.20
2019-02-24T04:33:05.385Z,96.20
2019-02-24T04:35:32.881Z,96.40
2019-02-24T04:38:00.374Z,96.30
2019-02-24T04:40:27.839Z,96.30
2019-02-24T04:42:55.349Z,96.40
2019-02-24T04:45:22.848Z,96.40
2019-02-24T04:47:50.343Z,96.60
2019-02-24T04:50:17.810Z,96.70
2019-02-24T04:52:45.280Z,96.60
2019-02-24T04:55:12.759Z,96.70
2019-02-24T04:57:40.218Z,96.40
2019-02-24T05:00:07.769Z,96.70
2019-02-24T05:02:35.285Z,96.80
2019-02-24T05:05:02.987Z,96.50
2019-02-24T05:07:30.512Z,96.60
2019-02-24T05:09:58.034Z,96.70
2019-02-24T05:12:25.540Z,96.60
2019-02-24T05:14:53.095Z,96.50
2019-02-24T05:17:20.647Z,96.40
2019-02-24T05:19:48.124Z,96.40
2019-02-24T05:22:15.629Z,96.60
2019-02-24T05:24:43.137Z,96.80
2019-02-24T05:27:10.723Z,96.40
2019-02-24T05:29:45.141Z,96.50
2019-02-24T05:32:07.496Z,96.50
2019-02-24T05:34:35.010Z,96.20
2019-02-24T05:37:02.471Z,96.50
2019-02-24T05:39:29.947Z,96.60
2019-02-24T05:41:57.414Z,96.60
2019-02-24T05:44:24.913Z,96.30
2019-02-24T05:46:52.412Z,96.20
2019-02-24T05:49:19.918Z,96.10
2019-02-24T05:52:06.870Z,95.70
2019-02-24T05:54:34.400Z,95.90
2019-02-24T05:57:01.874Z,96.10
2019-02-24T05:59:29.352Z,96.20
2019-02-24T06:01:56.827Z,96.30
2019-02-24T06:04:24.348Z,96.10
2019-02-24T06:06:51.814Z,96.10
2019-02-24T06:09:19.292Z,95.30
2019-02-24T06:11:46.788Z,95.70
2019-02-24T06:14:14.284Z,95.50
2019-02-24T06:16:41.805Z,95.70
2019-02-24T06:19:09.259Z,95.80
2019-02-24T06:21:36.705Z,96.00
2019-02-24T06:24:04.210Z,96.40
2019-02-24T06:26:31.700Z,96.00
2019-02-24T06:28:59.205Z,96.00
2019-02-24T06:31:26.699Z,96.30
2019-02-24T06:33:54.192Z,96.50
2019-02-24T06:36:21.631Z,96.30
2019-02-24T06:38:49.111Z,96.20
2019-02-24T06:41:16.532Z,96.20
2019-02-24T06:43:44.037Z,96.30
2019-02-24T06:46:11.481Z,96.40
2019-02-24T06:48:39.001Z,96.50
2019-02-24T06:51:08.617Z,96.40
2019-02-24T06:53:36.077Z,96.50
2019-02-24T06:56:03.574Z,96.00
2019-02-24T06:58:31.013Z,95.40
2019-02-24T07:00:58.491Z,94.90
2019-02-24T07:03:25.928Z,94.30
2019-02-24T07:05:53.403Z,94.00
2019-02-24T07:08:20.837Z,93.70
2019-02-24T07:10:48.300Z,93.60
2019-02-24T07:13:15.731Z,93.30
2019-02-24T07:15:43.183Z,93.10
2019-02-24T07:18:10.630Z,92.30
2019-02-24T07:20:38.110Z,91.60
2019-02-24T07:23:25.039Z,90.80
2019-02-24T07:25:52.530Z,90.30
2019-02-24T07:28:19.962Z,90.20
2019-02-24T07:30:47.411Z,90.20
2019-02-24T07:33:14.846Z,90.20
2019-02-24T07:35:42.345Z,91.30
2019-02-24T07:38:09.780Z,91.40
2019-02-24T07:40:37.264Z,90.80
2019-02-24T07:43:04.740Z,90.70
2019-02-24T07:45:32.236Z,90.70
2019-02-24T07:47:59.685Z,90.80
2019-02-24T07:50:28.106Z,90.90
2019-02-24T07:52:55.559Z,90.90
2019-02-24T07:55:23.449Z,90.30
2019-02-24T07:57:50.927Z,90.50
2019-02-24T08:00:18.376Z,89.00
2019-02-24T08:02:45.869Z,86.60
2019-02-24T08:05:13.346Z,83.40
2019-02-24T08:07:40.807Z,82.10
2019-02-24T08:10:08.263Z,81.60
2019-02-24T08:12:35.722Z,79.30
2019-02-24T08:15:03.530Z,77.90
2019-02-24T08:17:31.441Z,76.30
2019-02-24T08:19:58.903Z,74.90
2019-02-24T08:22:26.384Z,72.50
2019-02-24T08:24:53.848Z,71.60
2019-02-24T08:27:21.373Z,72.70
2019-02-24T08:30:08.615Z,71.70
2019-02-24T08:32:36.354Z,70.60
2019-02-24T08:35:04.388Z,71.20
2019-02-24T08:37:32.168Z,69.80
2019-02-24T08:39:59.617Z,68.80
2019-02-24T08:42:27.079Z,68.10
2019-02-24T08:44:54.549Z,67.20
2019-02-24T08:47:22.015Z,66.10
2019-02-24T08:49:49.451Z,65.90
2019-02-24T08:52:16.938Z,64.50
2019-02-24T08:54:44.416Z,63.50
2019-02-24T08:57:11.875Z,62.50
2019-02-24T08:59:39.328Z,61.30
2019-02-24T09:02:06.807Z,63.60
2019-02-24T09:04:34.642Z,61.40
2019-02-24T09:07:02.072Z,61.20
2019-02-24T09:09:29.550Z,59.80
2019-02-24T09:11:56.982Z,57.30
2019-02-24T09:14:24.439Z,55.90
2019-02-24T09:16:51.875Z,55.20
2019-02-24T09:19:19.361Z,52.60
2019-02-24T09:21:46.800Z,51.10
2019-02-24T09:24:14.243Z,49.70
2019-02-24T09:26:41.695Z,49.50
2019-02-24T09:29:09.163Z,47.80
2019-02-24T09:31:36.647Z,46.60
2019-02-24T09:34:04.147Z,46.30
2019-02-24T09:36:31.617Z,45.20
2019-02-24T09:38:59.062Z,47.20
2019-02-24T09:41:26.518Z,46.70
2019-02-24T09:43:53.998Z,46.60
2019-02-24T09:46:21.458Z,43.50
2019-02-24T09:48:48.959Z,44.50
2019-02-24T09:51:16.711Z,44.10
2019-02-24T09:53:44.216Z,42.40
2019-02-24T09:56:11.641Z,43.40
2019-02-24T09:58:39.116Z,42.00
2019-02-24T10:01:10.756Z,40.30
2019-02-24T10:03:35.869Z,39.40
2019-02-24T10:06:03.329Z,38.80
2019-02-24T10:08:30.803Z,41.30
2019-02-24T10:10:58.246Z,40.70
2019-02-24T10:13:25.707Z,37.90
2019-02-24T10:15:53.155Z,36.50
2019-02-24T10:18:20.614Z,37.30
2019-02-24T10:20:48.089Z,36.60
2019-02-24T10:23:15.532Z,37.30
2019-02-24T10:25:42.988Z,38.30
2019-02-24T10:28:10.414Z,38.50
2019-02-24T10:30:38.095Z,37.00
2019-02-24T10:33:05.689Z,38.30
2019-02-24T10:35:33.149Z,37.50
2019-02-24T10:38:00.596Z,37.90
2019-02-24T10:40:28.076Z,37.60
2019-02-24T10:42:55.540Z,36.50
2019-02-24T10:45:23.030Z,37.00
2019-02-24T10:47:50.503Z,36.20
2019-02-24T10:50:17.959Z,35.80
2019-02-24T10:52:45.395Z,35.40
2019-02-24T10:55:12.867Z,34.40
2019-02-24T10:57:40.323Z,32.50
2019-02-24T11:00:10.127Z,33.10
2019-02-24T11:02:37.630Z,32.80
2019-02-24T11:05:05.954Z,32.80
2019-02-24T11:07:34.232Z,32.40
2019-02-24T11:10:03.791Z,32.50
2019-02-24T11:12:30.989Z,32.10
2019-02-24T11:14:58.476Z,31.80
2019-02-24T11:17:25.964Z,32.00
2019-02-24T11:19:53.438Z,32.00
2019-02-24T11:22:20.907Z,31.80
2019-02-24T11:24:48.342Z,30.90
2019-02-24T11:27:15.793Z,31.00
2019-02-24T11:29:43.293Z,29.90
2019-02-24T11:32:10.796Z,29.60
2019-02-24T11:34:38.301Z,29.50
2019-02-24T11:37:05.853Z,29.20
2019-02-24T11:39:33.618Z,28.90
2019-02-24T11:42:01.193Z,29.40
2019-02-24T11:44:28.714Z,29.90
2019-02-24T11:46:56.594Z,30.90
2019-02-24T11:49:24.368Z,29.90
2019-02-24T11:51:51.943Z,29.10
2019-02-24T11:54:19.419Z,29.20
2019-02-24T11:56:46.923Z,29.30
2019-02-24T11:59:14.340Z,27.90
2019-02-24T12:01:47.621Z,28.20
2019-02-24T12:04:11.044Z,27.60
2019-02-24T12:06:38.549Z,28.40
2019-02-24T12:09:05.982Z,28.60
2019-02-24T12:11:35.170Z,28.40
2019-02-24T12:14:02.596Z,28.40
2019-02-24T12:16:30.057Z,27.60
2019-02-24T12:18:57.493Z,27.40
2019-02-24T12:21:24.930Z,27.70
2019-02-24T12:23:52.383Z,27.70
2019-02-24T12:26:19.835Z,27.70
2019-02-24T12:28:47.295Z,26.70
2019-02-24T12:31:14.754Z,27.20
2019-02-24T12:33:42.713Z,25.80
2019-02-24T12:36:10.210Z,27.60
2019-02-24T12:38:37.713Z,28.80
2019-02-24T12:41:05.190Z,28.30
2019-02-24T12:43:32.694Z,27.60
2019-02-24T12:46:00.128Z,27.30
2019-02-24T12:48:27.604Z,27.60
2019-02-24T12:50:55.041Z,26.70
2019-02-24T12:53:22.700Z,26.50
2019-02-24T12:55:50.351Z,27.70
2019-02-24T12:58:18.075Z,26.90
2019-02-24T13:00:45.653Z,25.70
2019-02-24T13:03:13.241Z,25.60
2019-02-24T13:05:40.785Z,24.40
2019-02-24T13:08:08.370Z,22.30
2019-02-24T13:10:35.875Z,23.90
2019-02-24T13:13:03.435Z,23.60
2019-02-24T13:15:31.121Z,22.90
2019-02-24T13:17:58.807Z,23.30
2019-02-24T13:20:26.668Z,23.30
2019-02-24T13:22:54.255Z,24.00
2019-02-24T13:25:21.863Z,24.10
2019-02-24T13:27:49.481Z,22.10
2019-02-24T13:30:17.091Z,21.60
2019-02-24T13:32:44.646Z,21.00
2019-02-24T13:35:12.161Z,21.40
2019-02-24T13:37:39.771Z,22.90
2019-02-24T13:40:09.472Z,22.20
2019-02-24T13:42:37.024Z,21.50
2019-02-24T13:45:06.022Z,21.90
2019-02-24T13:47:33.521Z,22.80
2019-02-24T13:50:01.037Z,23.00
2019-02-24T13:52:28.691Z,22.10
2019-02-24T13:54:56.211Z,22.50
2019-02-24T13:57:23.704Z,23.00
2019-02-24T13:59:51.247Z,23.30
2019-02-24T14:02:24.131Z,23.10
2019-02-24T14:04:48.297Z,22.70
2019-02-24T14:07:15.883Z,23.40
2019-02-24T14:09:43.477Z,23.10
2019-02-24T14:12:10.997Z,23.60
2019-02-24T14:14:38.532Z,23.30
2019-02-24T14:17:06.058Z,21.70
2019-02-24T14:19:33.646Z,21.10
2019-02-24T14:22:01.260Z,21.10
2019-02-24T14:24:28.754Z,22.10
2019-02-24T14:26:56.521Z,22.30
2019-02-24T14:29:24.622Z,22.40
2019-02-24T14:31:52.471Z,22.20
2019-02-24T14:34:21.416Z,21.70
2019-02-24T14:36:49.005Z,20.10
2019-02-24T14:39:16.525Z,20.70
2019-02-24T14:41:44.147Z,20.30
2019-02-24T14:44:11.734Z,20.50
2019-02-24T14:46:39.238Z,20.70
2019-02-24T14:49:08.147Z,21.40
2019-02-24T14:51:35.718Z,20.80
2019-02-24T14:54:03.325Z,21.50
2019-02-24T14:56:30.805Z,20.90
2019-02-24T14:58:58.355Z,20.90
2019-02-24T15:01:25.868Z,22.60
2019-02-24T15:03:53.473Z,21.40
2019-02-24T15:06:21.069Z,20.80
2019-02-24T15:08:48.656Z,20.80
2019-02-24T15:11:17.320Z,21.70
2019-02-24T15:13:44.783Z,23.20
2019-02-24T15:16:12.344Z,22.60
2019-02-24T15:18:41.923Z,21.70
2019-02-24T15:21:11.082Z,20.90
2019-02-24T15:23:38.645Z,21.60
2019-02-24T15:26:07.067Z,21.30
2019-02-24T15:28:34.556Z,21.30
2019-02-24T15:31:02.093Z,22.90
2019-02-24T15:33:29.738Z,22.80
2019-02-24T15:35:57.231Z,23.80
2019-02-24T15:38:24.719Z,23.40
2019-02-24T15:40:52.223Z,23.20
2019-02-24T15:43:19.658Z,23.00
2019-02-24T15:45:47.186Z,23.20
2019-02-24T15:48:14.699Z,23.20
2019-02-24T15:50:42.209Z,22.70
2019-02-24T15:53:09.706Z,23.00
2019-02-24T15:55:37.202Z,22.90
2019-02-24T15:58:05.026Z,22.90
2019-02-24T16:00:32.510Z,24.00
2019-02-24T16:03:02.063Z,24.30
2019-02-24T16:05:29.762Z,24.10
2019-02-24T16:07:57.346Z,24.00
2019-02-24T16:10:24.890Z,23.90
2019-02-24T16:12:52.435Z,23.50
2019-02-24T16:15:20.038Z,23.60
2019-02-24T16:17:47.673Z,24.80
2019-02-24T16:20:17.597Z,25.50
2019-02-24T16:22:45.092Z,27.20
2019-02-24T16:25:12.587Z,27.90
2019-02-24T16:27:40.159Z,27.90
2019-02-24T16:30:08.807Z,28.70
2019-02-24T16:32:36.427Z,29.50
2019-02-24T16:35:06.654Z,30.40
2019-02-24T16:37:34.099Z,31.40
2019-02-24T16:40:01.579Z,32.00
2019-02-24T16:42:29.035Z,32.80
2019-02-24T16:44:56.526Z,32.90
2019-02-24T16:47:23.972Z,33.30
2019-02-24T16:49:51.428Z,33.90
2019-02-24T16:52:18.859Z,34.50
2019-02-24T16:54:52.464Z,34.60
2019-02-24T16:57:15.593Z,35.30
2019-02-24T16:59:43.071Z,36.70
2019-02-24T17:02:10.513Z,35.50
2019-02-24T17:04:37.960Z,35.30
2019-02-24T17:07:05.395Z,36.70
2019-02-24T17:09:32.872Z,37.90
2019-02-24T17:12:00.300Z,37.10
2019-02-24T17:14:27.758Z,39.00
2019-02-24T17:17:01.397Z,39.60
2019-02-24T17:19:24.459Z,40.40
2019-02-24T17:21:51.892Z,40.30
2019-02-24T17:24:19.376Z,40.90
2019-02-24T17:26:46.795Z,40.10
2019-02-24T17:29:14.276Z,40.70
2019-02-24T17:31:41.773Z,42.10
2019-02-24T17:34:09.246Z,41.90
2019-02-24T17:36:37.066Z,42.50
2019-02-24T17:39:05.696Z,43.20
2019-02-24T17:41:33.147Z,43.60
2019-02-24T17:44:00.599Z,44.70
2019-02-24T17:46:28.067Z,45.60
2019-02-24T17:48:55.548Z,46.50
2019-02-24T17:51:23.297Z,47.80
2019-02-24T17:53:50.735Z,48.60
2019-02-24T17:56:18.202Z,48.80
2019-02-24T17:58:45.663Z,53.30
2019-02-24T18:01:13.243Z,54.90
2019-02-24T18:03:40.735Z,55.70
2019-02-24T18:06:08.270Z,56.10
2019-02-24T18:08:56.093Z,55.80
2019-02-24T18:11:27.004Z,55.90
2019-02-24T18:13:54.472Z,56.20
2019-02-24T18:16:22.053Z,58.70
2019-02-24T18:18:49.886Z,60.50
2019-02-24T18:21:17.411Z,61.20
2019-02-24T18:23:45.797Z,63.00
2019-02-24T18:26:13.350Z,64.50
2019-02-24T18:28:40.820Z,65.50
2019-02-24T18:31:08.619Z,65.70
2019-02-24T18:33:48.093Z,67.50
2019-02-24T18:36:12.436Z,68.20
2019-02-24T18:38:43.002Z,69.20
2019-02-24T18:41:10.549Z,69.00
2019-02-24T18:43:38.073Z,68.70
2019-02-24T18:46:05.719Z,61.90
2019-02-24T18:48:33.315Z,63.90
2019-02-24T18:51:01.331Z,64.50
2019-02-24T18:53:28.883Z,63.90
2019-02-24T18:55:56.468Z,67.10
2019-02-24T18:58:24.167Z,68.40
2019-02-24T19:00:51.779Z,69.10
2019-02-24T19:03:19.305Z,68.80
2019-02-24T19:05:47.089Z,69.00
2019-02-24T19:08:15.333Z,66.90
2019-02-24T19:10:43.172Z,66.80
2019-02-24T19:13:10.831Z,66.50
2019-02-24T19:15:38.326Z,67.70
2019-02-24T19:18:06.193Z,68.40
2019-02-24T19:20:33.707Z,68.70
2019-02-24T19:23:02.354Z,70.10
2019-02-24T19:25:29.842Z,68.20
2019-02-24T19:27:57.393Z,69.50
2019-02-24T19:30:24.902Z,71.40
2019-02-24T19:32:52.429Z,72.20
2019-02-24T19:35:20.092Z,73.20
2019-02-24T19:37:47.670Z,73.30
2019-02-24T19:40:15.701Z,72.80
2019-02-24T19:42:43.294Z,72.40
2019-02-24T19:45:13.527Z,74.50
2019-02-24T19:47:43.556Z,74.80
2019-02-24T19:50:16.989Z,75.00
2019-02-24T19:52:44.519Z,73.90
2019-02-24T19:55:12.069Z,73.60
2019-02-24T19:57:42.029Z,73.30
2019-02-24T20:00:17.876Z,76.50
2019-02-24T20:02:45.421Z,76.80
2019-02-24T20:05:13.034Z,77.20
2019-02-24T20:07:40.560Z,75.40
2019-02-24T20:10:08.543Z,75.10
2019-02-24T20:12:36.129Z,74.50
2019-02-24T20:15:04.807Z,74.20
2019-02-24T20:17:32.403Z,75.60
2019-02-24T20:19:59.940Z,75.60
2019-02-24T20:24:55.382Z,72.10
2019-02-24T20:27:22.938Z,77.80
2019-02-24T20:29:50.868Z,77.10
2019-02-24T20:32:18.363Z,76.30
2019-02-24T20:34:45.827Z,77.00
2019-02-24T20:37:13.319Z,76.10
2019-02-24T20:39:41.146Z,76.10
2019-02-24T20:42:08.656Z,76.70
2019-02-24T20:44:36.199Z,77.20
2019-02-24T20:47:03.684Z,77.70
2019-02-24T20:49:31.224Z,78.40
2019-02-24T20:51:58.777Z,79.60
2019-02-24T20:54:26.255Z,80.30
2019-02-24T20:56:53.739Z,78.00
2019-02-24T20:59:21.356Z,78.70
2019-02-24T21:01:48.975Z,77.50
2019-02-24T21:04:17.020Z,78.50
2019-02-24T21:06:47.651Z,78.80
2019-02-24T21:09:15.257Z,78.20
2019-02-24T21:11:43.692Z,79.70
2019-02-24T21:14:11.236Z,81.30
2019-02-24T21:16:39.126Z,80.70
2019-02-24T21:19:07.078Z,77.10
2019-02-24T21:21:35.333Z,77.70
2019-02-24T21:24:02.909Z,77.60
2019-02-24T21:26:30.558Z,77.00
2019-02-24T21:28:58.001Z,76.70
2019-02-24T21:31:25.502Z,77.60
2019-02-24T21:33:53.077Z,79.40
2019-02-24T21:36:20.587Z,77.90
2019-02-24T21:38:48.056Z,77.90
2019-02-24T21:41:16.112Z,77.30
2019-02-24T21:43:43.599Z,78.00
2019-02-24T21:46:11.760Z,77.90
2019-02-24T21:48:39.321Z,78.30
2019-02-24T21:51:06.830Z,78.20
2019-02-24T21:53:34.347Z,77.70
2019-02-24T21:56:01.890Z,77.60
2019-02-24T21:58:29.647Z,78.20
2019-02-24T22:00:57.133Z,78.70
2019-02-24T22:03:25.366Z,79.10
2019-02-24T22:05:54.863Z,78.70
2019-02-24T22:08:22.382Z,79.50
2019-02-24T22:10:49.883Z,80.50
2019-02-24T22:13:17.329Z,80.90
2019-02-24T22:15:44.819Z,81.10
2019-02-24T22:18:12.491Z,82.20
2019-02-24T22:20:39.970Z,82.70
2019-02-24T22:23:07.486Z,83.40
2019-02-24T22:25:34.997Z,85.10
2019-02-24T22:28:02.511Z,83.80
2019-02-24T22:30:30.018Z,82.10
2019-02-24T22:32:57.519Z,82.50
2019-02-24T22:35:25.008Z,83.50
2019-02-24T22:37:52.556Z,84.00
2019-02-24T22:40:20.020Z,85.30
2019-02-24T22:43:06.952Z,85.10
2019-02-24T22:45:34.474Z,85.50
2019-02-24T22:48:03.144Z,85.80
2019-02-24T22:50:31.176Z,85.10
2019-02-24T22:52:58.680Z,83.90
2019-02-24T22:55:26.190Z,84.60
2019-02-24T22:57:53.722Z,84.70
2019-02-24T23:00:44.936Z,86.30
2019-02-24T23:03:12.408Z,85.50
2019-02-24T23:05:39.907Z,85.70
2019-02-24T23:08:07.414Z,86.00
2019-02-24T23:10:34.892Z,86.90
2019-02-24T23:13:02.421Z,87.10
2019-02-24T23:15:29.889Z,87.20
2019-02-24T23:17:58.035Z,88.00
2019-02-24T23:20:25.997Z,87.30
2019-02-24T23:22:53.568Z,86.70
2019-02-24T23:25:21.178Z,86.50
2019-02-24T23:27:48.694Z,87.20
2019-02-24T23:30:16.167Z,86.10
2019-02-24T23:32:43.691Z,86.40
2019-02-24T23:35:11.223Z,87.20
2019-02-24T23:37:38.687Z,88.20
2019-02-24T23:40:06.431Z,88.00
2019-02-24T23:42:33.908Z,88.70
2019-02-24T23:45:09.917Z,89.30
2019-02-24T23:47:30.673Z,89.50
2019-02-24T23:49:58.242Z,89.20
2019-02-24T23:52:25.698Z,89.00
2019-02-24T23:54:53.207Z,87.60
2019-02-24T23:57:20.717Z,87.30
2019-02-24T23:59:48.236Z,86.70
